• Join FlightAware (Why Join?)
  • Login
  • US Flag 
11:56AM EDT


 

Airport Tracker/Info


-or-


 

Live Flight TrackerFlight Track Log ✈ UCA4838 ✈ 15-Jun-2013 ✈ KROC - KEWR

Flight Track Log - Related Links

Times and Time Zones

All times are in EDT time to prevent confusion due to time zone crossing. See the UCA4838 flight status page for this flight to view local times or setup timezone preferences in your user account.

Time Position Orientation Groundspeed Altitude Reporting Facility
EDT Latitude Longitude Course Direction KTS MPH feet Rate Location/Type
08:07AM 43.1203 -77.6933 266° West 127 146 1,300  Level Cleveland Center
08:07AM 43.1189 -77.7219 266° West 144 166 2,000 1,020 Climbing Cleveland Center
08:08AM 43.0717 -77.7553 207° Southwest 218 251 3,000 1,500 Climbing Cleveland Center
08:09AM 43.0250 -77.7233 153° Southeast 212 244 5,200 2,040 Climbing Cleveland Center
08:10AM 43.0108 -77.6531 105° East 211 243 7,300 1,800 Climbing Cleveland Center
08:11AM 42.9925 -77.5858 110° East 199 229 8,900 1,620 Climbing Cleveland Center
08:12AM 42.9717 -77.5131 111° Southeast 199 229 10,600 1,680 Climbing Cleveland Center
08:13AM 42.9511 -77.4431 112° Southeast 199 229 12,300 1,200 Climbing Cleveland Center
08:14AM 42.9281 -77.3619 111° Southeast 207 238 13,000 180 Climbing Cleveland Center
08:17AM 42.8667 -77.1339 110° East 286 329 13,000  Level New York Center
08:18AM 42.8347 -77.0289 113° Southeast 296 341 13,000  Level New York Center
08:19AM 42.7933 -76.9283 119° Southeast 310 357 13,000  Level Boston Center
08:20AM 42.7494 -76.8261 120° Southeast 316 364 13,000  Level Boston Center
08:21AM 42.7053 -76.7269 121° Southeast 316 364 13,000  Level Boston Center
08:22AM 42.6608 -76.6278 121° Southeast 311 358 13,000  Level Boston Center
08:23AM 42.6167 -76.5289 121° Southeast 311 358 13,000  Level Boston Center
08:24AM 42.5722 -76.4300 121° Southeast 311 358 13,000  Level Boston Center
08:25AM 42.5278 -76.3283 121° Southeast 311 358 13,000  Level Boston Center
08:26AM 42.4792 -76.2183 121° Southeast 316 364 13,000  Level Boston Center
08:27AM 42.4364 -76.1231 121° Southeast 305 351 13,000  Level Boston Center
08:28AM 42.3897 -76.0217 122° Southeast 315 362 13,000  Level Boston Center
08:29AM 42.3431 -75.9181 121° Southeast 305 351 13,000  Level Boston Center
08:30AM 42.2958 -75.8228 124° Southeast 315 362 13,000  Level Boston Center
08:31AM 42.2567 -75.7308 120° Southeast 310 357 13,000  Level Boston Center
08:32AM 42.2039 -75.6131 121° Southeast 310 357 13,000  Level Boston Center
08:33AM 42.1564 -75.5153 123° Southeast 310 357 13,000  Level Boston Center
08:34AM 42.1133 -75.4181 121° Southeast 310 357 13,000  Level Boston Center
08:35AM 42.0658 -75.3208 123° Southeast 310 357 13,000  Level Boston Center
08:36AM 42.0247 -75.2153 118° Southeast 310 357 13,000  Level Boston Center
08:37AM 41.9836 -75.1047 117° Southeast 303 349 13,000  Level Boston Center
08:38AM 41.9461 -75.0025 116° Southeast 308 354 13,000 -180 Level Boston Center
08:39AM 41.8919 -74.9167 130° Southeast 308 354 12,700 -900 Descending Boston Center
08:40AM 41.8117 -74.8689 156° South 307 353 11,100 -1,500 Descending Boston Center
08:41AM 41.7275 -74.8100 152° Southeast 312 359 9,500 -1,680 Descending Boston Center
08:42AM 41.6494 -74.7544 152° Southeast 302 348 7,800 -1,500 Descending Boston Center
08:43AM 41.5856 -74.7133 154° Southeast 296 341 6,600 -900 Descending Boston Center
08:44AM 41.5094 -74.6606 153° Southeast 285 328 6,100 -240 Descending Boston Center
08:45AM 41.4000 -74.6000 157° South 283 326 6,100 -60 Level New York TRACON
08:46AM 41.3333 -74.6167 191° South 278 320 6,000 -180 Descending New York TRACON
08:47AM 41.2667 -74.5667 151° Southeast 282 325 5,800 -660 Descending New York TRACON
08:48AM 41.2167 -74.4833 129° Southeast 281 323 4,700 -960 Descending New York TRACON
08:49AM 41.1667 -74.4333 143° Southeast 271 312 4,000 -360 Descending New York TRACON
08:50AM 41.1000 -74.3500 137° Southeast 272 313 4,000  Level New York TRACON
08:51AM 41.0333 -74.2833 143° Southeast 276 318 4,000  Level New York TRACON
08:52AM 40.9833 -74.2167 135° Southeast 276 318 4,000 -120 Level New York TRACON
08:53AM 40.9333 -74.1500 135° Southeast 275 316 3,800 -540 Descending New York TRACON
08:54AM 40.8667 -74.1000 150° Southeast 270 311 3,000 -720 Descending New York TRACON
08:55AM 40.8167 -74.0833 166° South 229 264 2,400 -780 Descending New York TRACON
08:56AM 40.7667 -74.1167 207° Southwest 192 221 1,500 -900 Descending New York TRACON
08:57AM 40.7167 -74.1500 207° Southwest 139 160 600 -840 Descending New York TRACON
08:59AM 40.6925 -74.1687 168° South  Level Estimated
09:06AM 40.6925 -74.1687 168° South  Level Estimated
09:07AM 40.6925 -74.1687 168° South  Level Estimated